KFRH/FRH METAR and TAF weather

Enter ICAO airport designator
Station Type Date Time Source
KFRH METAR 2022/06/28 16:15 UTC NOAA

KFRH 281615Z AUTO 08004KT 10SM CLR 22/05 A3029 RMK AO1


Station Type Date Time Source
KFRH Decoded METAR 2022/06/28 16:15 UTC NOAA

Station name not available
Jun 28, 2022 - 12:15 PM EDT / 2022.06.28 1615 UTC
Wind: from the E (080 degrees) at 5 MPH (4 KT):0
Visibility: 10 mile(s):0
Sky conditions: clear
Temperature: 71 F (22 C)
Dew Point: 41 F (5 C)
Relative Humidity: 32%
Pressure (altimeter): 30.29 in. Hg (1025 hPa)
ob: KFRH 281615Z AUTO 08004KT 10SM CLR 22/05 A3029 RMK AO1
cycle: 16

Station Type Date Time Source
KFRH TAF UTC NOAA

Error!

Example: see airport list